createdAt,value
2023-05-16T00:01:30.286Z,17.88
2023-05-16T00:04:17.727Z,17.85
2023-05-16T00:07:03.823Z,17.80
2023-05-16T00:09:50.131Z,17.80
2023-05-16T00:12:36.993Z,17.82
2023-05-16T00:15:23.473Z,17.77
2023-05-16T00:18:10.116Z,17.74
2023-05-16T00:20:56.325Z,17.74
2023-05-16T00:23:42.527Z,17.74
2023-05-16T00:26:28.620Z,17.73
2023-05-16T00:29:14.771Z,17.71
2023-05-16T00:32:00.976Z,17.64
2023-05-16T00:34:46.889Z,17.72
2023-05-16T00:37:33.186Z,17.71
2023-05-16T00:40:19.006Z,17.72
2023-05-16T00:43:05.020Z,17.71
2023-05-16T00:45:51.925Z,17.70
2023-05-16T00:48:38.265Z,17.72
2023-05-16T00:51:26.524Z,17.72
2023-05-16T00:54:12.678Z,17.70
2023-05-16T00:56:59.672Z,17.70
2023-05-16T00:59:46.996Z,17.75
2023-05-16T01:02:33.332Z,17.72
2023-05-16T01:05:22.095Z,17.75
2023-05-16T01:08:07.773Z,17.77
2023-05-16T01:11:09.734Z,17.76
2023-05-16T01:14:09.254Z,17.74
2023-05-16T01:17:07.820Z,17.72
2023-05-16T01:20:18.275Z,17.72
2023-05-16T01:23:20.128Z,17.70
2023-05-16T01:26:12.590Z,17.71
2023-05-16T01:28:59.252Z,17.67
2023-05-16T01:31:45.204Z,17.67
2023-05-16T01:34:31.385Z,17.67
2023-05-16T01:37:25.118Z,17.66
2023-05-16T01:40:16.753Z,17.68
2023-05-16T01:43:07.271Z,17.68
2023-05-16T01:45:58.142Z,17.69
2023-05-16T01:48:56.142Z,17.69
2023-05-16T01:51:42.412Z,17.66
2023-05-16T01:54:31.849Z,17.69
2023-05-16T01:57:17.917Z,17.69
2023-05-16T02:00:05.180Z,17.69
2023-05-16T02:02:59.698Z,17.66
2023-05-16T02:05:45.739Z,17.64
2023-05-16T02:08:33.829Z,17.59
2023-05-16T02:11:19.609Z,17.54
2023-05-16T02:14:05.466Z,17.54
2023-05-16T02:16:51.662Z,17.56
2023-05-16T02:19:37.940Z,17.57
2023-05-16T02:22:24.082Z,17.57
2023-05-16T02:25:10.362Z,17.61
2023-05-16T02:27:56.606Z,17.57
2023-05-16T02:30:42.571Z,17.61
2023-05-16T02:33:29.145Z,17.64
2023-05-16T02:36:15.259Z,17.65
2023-05-16T02:39:02.330Z,17.65
2023-05-16T02:41:48.342Z,17.64
2023-05-16T02:44:34.750Z,17.66
2023-05-16T02:47:20.681Z,17.67
2023-05-16T02:50:07.180Z,17.71
2023-05-16T02:52:54.132Z,17.68
2023-05-16T02:55:39.970Z,17.74
2023-05-16T02:58:26.215Z,17.77
2023-05-16T03:01:11.936Z,17.75
2023-05-16T03:03:57.880Z,17.77
2023-05-16T03:06:44.420Z,17.78
2023-05-16T03:09:30.587Z,17.76
2023-05-16T03:12:16.751Z,17.78
2023-05-16T03:15:02.640Z,17.76
2023-05-16T03:17:49.189Z,17.80
2023-05-16T03:24:11.545Z,17.75
2023-05-16T03:27:00.111Z,17.71
2023-05-16T03:30:06.996Z,17.73
2023-05-16T03:32:59.145Z,17.75
2023-05-16T03:35:45.724Z,17.69
2023-05-16T03:38:32.326Z,17.72
2023-05-16T03:41:18.292Z,17.79
2023-05-16T03:44:04.572Z,17.76
2023-05-16T03:46:52.982Z,17.80
2023-05-16T03:49:38.945Z,17.78
2023-05-16T03:52:25.191Z,17.86
2023-05-16T03:55:14.355Z,17.85
2023-05-16T03:58:00.795Z,17.86
2023-05-16T04:00:46.974Z,17.89
2023-05-16T04:03:33.745Z,17.94
2023-05-16T04:06:19.888Z,17.92
2023-05-16T04:09:06.631Z,17.95
2023-05-16T04:11:52.695Z,17.98
2023-05-16T04:14:38.942Z,17.98
2023-05-16T04:17:24.891Z,18.01
2023-05-16T04:20:11.795Z,18.02
2023-05-16T04:23:04.240Z,18.00
2023-05-16T04:25:50.808Z,18.08
2023-05-16T04:28:37.274Z,18.11
2023-05-16T04:31:23.342Z,18.13
2023-05-16T04:34:11.773Z,18.15
2023-05-16T04:36:57.928Z,18.17
2023-05-16T04:39:44.117Z,18.19
2023-05-16T04:42:42.427Z,18.21
2023-05-16T04:45:28.780Z,18.26
2023-05-16T04:48:15.875Z,18.27
2023-05-16T04:51:02.035Z,18.31
2023-05-16T04:53:48.742Z,18.32
2023-05-16T04:56:34.998Z,18.33
2023-05-16T04:59:21.872Z,18.34
2023-05-16T05:02:07.981Z,18.33
2023-05-16T05:04:54.890Z,18.35
2023-05-16T05:07:41.046Z,18.39
2023-05-16T05:10:31.334Z,18.42
2023-05-16T05:13:17.301Z,18.42
2023-05-16T05:16:05.977Z,18.47
2023-05-16T05:18:52.239Z,18.50
2023-05-16T05:21:38.344Z,18.51
2023-05-16T05:24:24.657Z,18.52
2023-05-16T05:27:10.570Z,18.53
2023-05-16T05:29:56.587Z,18.53
2023-05-16T05:32:42.885Z,18.59
2023-05-16T05:35:29.152Z,18.60
2023-05-16T05:38:15.206Z,18.59
2023-05-16T05:41:01.037Z,18.60
2023-05-16T05:43:47.089Z,18.55
2023-05-16T05:46:33.944Z,18.62
2023-05-16T05:49:19.963Z,18.65
2023-05-16T05:52:06.111Z,18.65
2023-05-16T05:54:52.810Z,18.65
2023-05-16T05:57:39.196Z,18.69
2023-05-16T06:00:26.120Z,18.72
2023-05-16T06:03:12.451Z,18.77
2023-05-16T06:05:58.662Z,18.78
2023-05-16T06:08:44.740Z,18.82
2023-05-16T06:11:32.370Z,18.84
2023-05-16T06:14:19.704Z,18.87
2023-05-16T06:17:05.976Z,18.88
2023-05-16T06:19:52.126Z,18.85
2023-05-16T06:22:38.054Z,18.89
2023-05-16T06:25:23.903Z,18.88
2023-05-16T06:28:09.854Z,18.88
2023-05-16T06:30:56.036Z,18.89
2023-05-16T06:33:42.306Z,18.90
2023-05-16T06:36:28.152Z,18.96
2023-05-16T06:39:14.078Z,18.97
2023-05-16T06:42:00.136Z,18.94
2023-05-16T06:44:51.336Z,19.00
2023-05-16T06:47:37.092Z,19.02
2023-05-16T06:50:23.268Z,19.02
2023-05-16T06:53:09.236Z,18.98
2023-05-16T06:58:39.297Z,19.00
2023-05-16T07:01:25.728Z,19.08
2023-05-16T07:04:12.031Z,19.05
2023-05-16T07:06:57.767Z,19.11
2023-05-16T07:09:43.885Z,19.10
2023-05-16T07:12:30.444Z,19.12
2023-05-16T07:15:16.280Z,19.14
2023-05-16T07:18:02.549Z,19.17
2023-05-16T07:20:48.731Z,19.19
2023-05-16T07:23:35.092Z,19.18
2023-05-16T07:26:23.406Z,19.19
2023-05-16T07:29:09.275Z,19.20
2023-05-16T07:31:55.429Z,19.18
2023-05-16T07:34:41.640Z,19.26
2023-05-16T07:37:27.857Z,19.28
2023-05-16T07:40:14.970Z,19.31
2023-05-16T07:43:02.936Z,19.29
2023-05-16T07:45:48.722Z,19.33
2023-05-16T07:48:34.982Z,19.28
2023-05-16T07:51:21.391Z,19.35
2023-05-16T07:54:09.613Z,19.32
2023-05-16T07:56:56.616Z,19.36
2023-05-16T07:59:43.372Z,19.32
2023-05-16T08:02:31.196Z,19.31
2023-05-16T08:05:17.580Z,19.28
2023-05-16T08:08:03.836Z,19.27
2023-05-16T08:10:49.751Z,19.31
2023-05-16T08:13:36.208Z,19.31
2023-05-16T08:16:22.128Z,19.35
2023-05-16T08:19:08.045Z,19.30
2023-05-16T08:21:54.111Z,19.35
2023-05-16T08:24:39.992Z,19.39
2023-05-16T08:27:25.830Z,19.36
2023-05-16T08:30:13.140Z,19.40
2023-05-16T08:32:58.759Z,19.41
2023-05-16T08:35:45.037Z,19.41
2023-05-16T08:38:31.073Z,19.39
2023-05-16T08:41:18.425Z,19.38
2023-05-16T08:44:04.905Z,19.39
2023-05-16T08:46:53.082Z,19.41
2023-05-16T08:49:41.599Z,19.44
2023-05-16T08:52:31.434Z,19.44
2023-05-16T08:55:20.074Z,19.45
2023-05-16T08:58:06.126Z,19.44
2023-05-16T09:00:52.390Z,19.37
2023-05-16T09:03:39.130Z,19.37
2023-05-16T09:06:25.187Z,19.35
2023-05-16T09:09:13.217Z,19.35
2023-05-16T09:11:59.365Z,19.28
2023-05-16T09:14:45.692Z,19.31
2023-05-16T09:17:40.065Z,19.36
2023-05-16T09:20:28.131Z,19.33
2023-05-16T09:23:14.051Z,19.37
2023-05-16T09:25:59.938Z,19.34
2023-05-16T09:28:45.996Z,19.32
2023-05-16T09:31:37.738Z,19.39
2023-05-16T09:34:23.815Z,19.39
2023-05-16T09:37:11.267Z,19.38
2023-05-16T09:39:57.438Z,19.42
2023-05-16T09:42:44.258Z,19.39
2023-05-16T09:45:32.022Z,19.41
2023-05-16T09:48:21.196Z,19.33
2023-05-16T09:51:07.433Z,19.25
2023-05-16T09:53:53.387Z,19.14
2023-05-16T09:56:50.106Z,19.05
2023-05-16T09:59:38.008Z,18.95
2023-05-16T10:02:24.738Z,18.89
2023-05-16T10:05:11.261Z,18.94
2023-05-16T10:07:58.459Z,18.91
2023-05-16T10:10:45.524Z,18.91
2023-05-16T10:13:36.038Z,18.93
2023-05-16T10:16:23.994Z,18.93
2023-05-16T10:19:11.216Z,18.93
2023-05-16T10:21:59.766Z,18.94
2023-05-16T10:24:49.271Z,18.96
2023-05-16T10:27:36.585Z,18.96
2023-05-16T10:30:22.792Z,18.96
2023-05-16T10:33:12.578Z,18.97
2023-05-16T10:35:58.707Z,18.98
2023-05-16T10:38:45.497Z,18.99
2023-05-16T10:41:31.707Z,18.98
2023-05-16T10:44:17.559Z,18.98
2023-05-16T10:47:04.746Z,18.97
2023-05-16T10:49:50.932Z,18.99
2023-05-16T10:52:36.815Z,18.97
2023-05-16T10:55:22.663Z,18.98
2023-05-16T10:58:08.995Z,19.00
2023-05-16T11:01:16.702Z,18.99
2023-05-16T11:04:05.660Z,19.01
2023-05-16T11:06:53.521Z,19.06
2023-05-16T11:09:45.243Z,19.03
2023-05-16T11:12:48.311Z,19.09
2023-05-16T11:15:34.819Z,19.10
2023-05-16T11:18:21.171Z,19.15
2023-05-16T11:21:07.256Z,19.24
2023-05-16T11:24:30.649Z,19.27
2023-05-16T11:27:32.130Z,19.34
2023-05-16T11:30:19.980Z,19.38
2023-05-16T11:33:06.267Z,19.43
2023-05-16T11:36:16.178Z,19.45
2023-05-16T11:39:12.465Z,19.48
2023-05-16T11:42:02.270Z,19.54
2023-05-16T11:44:48.249Z,19.55
2023-05-16T11:47:34.466Z,19.50
2023-05-16T11:50:23.633Z,19.46
2023-05-16T11:53:09.910Z,19.51
2023-05-16T11:55:56.474Z,19.50
2023-05-16T11:58:43.151Z,19.47
2023-05-16T12:01:39.875Z,19.44
2023-05-16T12:04:28.505Z,19.44
2023-05-16T12:07:15.146Z,19.46
2023-05-16T12:10:08.036Z,19.48
2023-05-16T12:12:54.800Z,19.47
2023-05-16T12:15:41.093Z,19.46
2023-05-16T12:18:27.112Z,19.45
2023-05-16T12:21:13.865Z,19.39
2023-05-16T12:24:00.292Z,19.40
2023-05-16T12:26:46.543Z,19.41
2023-05-16T12:29:32.890Z,19.42
2023-05-16T12:32:20.202Z,19.49
2023-05-16T12:35:07.932Z,19.54
2023-05-16T12:37:53.976Z,19.60
2023-05-16T12:40:41.845Z,19.74
2023-05-16T12:43:28.684Z,19.86
2023-05-16T12:46:14.875Z,19.97
2023-05-16T12:49:06.815Z,20.04
2023-05-16T12:52:48.959Z,20.14
2023-05-16T12:55:35.121Z,20.13
2023-05-16T12:58:22.271Z,20.23
2023-05-16T13:01:10.570Z,20.25
2023-05-16T13:03:56.730Z,20.29
2023-05-16T13:06:57.351Z,20.32
2023-05-16T13:09:45.441Z,20.33
2023-05-16T13:12:31.731Z,20.31
2023-05-16T13:15:18.275Z,20.35
2023-05-16T13:18:04.234Z,20.39
2023-05-16T13:20:51.120Z,20.43
2023-05-16T13:23:37.051Z,20.49
2023-05-16T13:26:22.928Z,20.56
2023-05-16T13:29:11.547Z,20.72
2023-05-16T13:31:57.531Z,20.83
2023-05-16T13:34:43.622Z,20.91
2023-05-16T13:37:30.216Z,20.88
2023-05-16T13:40:16.302Z,20.91
2023-05-16T13:43:02.973Z,20.85
2023-05-16T13:45:49.257Z,20.84
2023-05-16T13:48:36.084Z,20.84
2023-05-16T13:51:22.508Z,20.82
2023-05-16T13:54:08.872Z,20.75
2023-05-16T13:56:55.078Z,20.76
2023-05-16T14:02:30.231Z,20.76
2023-05-16T14:05:16.645Z,20.75
2023-05-16T14:08:02.945Z,20.73
2023-05-16T14:10:49.153Z,20.68
2023-05-16T14:13:35.015Z,20.66
2023-05-16T14:16:21.247Z,20.65
2023-05-16T14:19:07.416Z,20.58
2023-05-16T14:21:53.726Z,20.55
2023-05-16T14:24:44.151Z,20.52
2023-05-16T14:27:31.002Z,20.50
2023-05-16T14:30:17.512Z,20.47
2023-05-16T14:33:03.849Z,20.46
2023-05-16T14:35:50.325Z,20.43
2023-05-16T14:38:36.830Z,20.44
2023-05-16T14:41:57.060Z,20.43
2023-05-16T14:44:43.383Z,20.45
2023-05-16T14:47:31.417Z,20.38
2023-05-16T14:50:17.676Z,20.44
2023-05-16T14:53:04.517Z,20.43
2023-05-16T14:55:50.537Z,20.47
2023-05-16T14:58:36.968Z,20.43
2023-05-16T15:01:23.079Z,20.43
2023-05-16T15:04:09.383Z,20.47
2023-05-16T15:06:55.617Z,20.45
2023-05-16T15:09:41.933Z,20.44
2023-05-16T15:12:28.770Z,20.48
2023-05-16T15:15:16.709Z,20.47
2023-05-16T15:18:02.669Z,20.49
2023-05-16T15:20:48.954Z,20.48
2023-05-16T15:23:35.242Z,20.52
2023-05-16T15:26:22.674Z,20.53
2023-05-16T15:29:08.812Z,20.52
2023-05-16T15:31:54.949Z,20.55
2023-05-16T15:34:41.348Z,20.57
2023-05-16T15:37:27.591Z,20.54
2023-05-16T15:40:14.170Z,20.57
2023-05-16T15:43:00.101Z,20.51
2023-05-16T15:45:46.134Z,20.49
2023-05-16T15:48:32.287Z,20.51
2023-05-16T15:51:19.523Z,20.47
2023-05-16T15:54:05.529Z,20.47
2023-05-16T15:56:51.835Z,20.45
2023-05-16T15:59:38.050Z,20.43
2023-05-16T16:02:24.304Z,20.42
2023-05-16T16:05:10.479Z,20.39
2023-05-16T16:07:56.536Z,20.41
2023-05-16T16:10:42.440Z,20.35
2023-05-16T16:13:28.719Z,20.41
2023-05-16T16:16:15.849Z,20.41
2023-05-16T16:19:01.997Z,20.40
2023-05-16T16:21:53.546Z,20.35
2023-05-16T16:24:41.887Z,20.41
2023-05-16T16:27:39.760Z,20.40
2023-05-16T16:30:27.979Z,20.39
2023-05-16T16:33:14.636Z,20.39
2023-05-16T16:36:01.384Z,20.40
2023-05-16T16:38:48.742Z,20.38
2023-05-16T16:41:34.982Z,20.34
2023-05-16T16:44:21.051Z,20.32
2023-05-16T16:47:07.358Z,20.31
2023-05-16T16:49:53.304Z,20.30
2023-05-16T16:52:39.087Z,20.24
2023-05-16T16:55:25.102Z,20.26
2023-05-16T16:58:11.129Z,20.20
2023-05-16T17:00:57.341Z,20.17
2023-05-16T17:03:43.463Z,20.15
2023-05-16T17:06:30.217Z,20.11
2023-05-16T17:09:19.897Z,20.07
2023-05-16T17:12:08.537Z,20.06
2023-05-16T17:14:56.272Z,20.05
2023-05-16T17:17:42.635Z,20.02
2023-05-16T17:20:28.834Z,19.97
2023-05-16T17:23:15.077Z,19.95
2023-05-16T17:26:01.584Z,19.92
2023-05-16T17:28:49.399Z,19.89
2023-05-16T17:31:35.705Z,19.86
2023-05-16T17:34:21.942Z,19.83
2023-05-16T17:37:08.353Z,19.81
2023-05-16T17:39:54.552Z,19.78
2023-05-16T17:42:40.621Z,19.76
2023-05-16T17:45:26.634Z,19.66
2023-05-16T17:48:12.588Z,19.68
2023-05-16T17:50:58.907Z,19.65
2023-05-16T17:53:45.208Z,19.60
2023-05-16T17:56:31.182Z,19.61
2023-05-16T17:59:17.635Z,19.58
2023-05-16T18:02:04.638Z,19.53
2023-05-16T18:04:51.645Z,19.52
2023-05-16T18:07:37.571Z,19.47
2023-05-16T18:10:25.616Z,19.48
2023-05-16T18:13:12.585Z,19.41
2023-05-16T18:15:58.598Z,19.38
2023-05-16T18:18:44.557Z,19.39
2023-05-16T18:21:31.565Z,19.32
2023-05-16T18:24:17.654Z,19.36
2023-05-16T18:27:04.024Z,19.32
2023-05-16T18:29:50.121Z,19.32
2023-05-16T18:32:36.635Z,19.28
2023-05-16T18:35:23.838Z,19.31
2023-05-16T18:38:17.432Z,19.26
2023-05-16T18:41:15.900Z,19.26
2023-05-16T18:44:04.728Z,19.25
2023-05-16T18:46:51.111Z,19.26
2023-05-16T18:49:40.587Z,19.26
2023-05-16T18:52:26.308Z,19.26
2023-05-16T18:55:12.417Z,19.25
2023-05-16T18:57:58.782Z,19.28
2023-05-16T19:00:44.778Z,19.21
2023-05-16T19:03:33.194Z,19.29
2023-05-16T19:06:19.548Z,19.24
2023-05-16T19:09:09.023Z,19.23
2023-05-16T19:11:56.225Z,19.27
2023-05-16T19:14:42.184Z,19.25
2023-05-16T19:17:28.267Z,19.23
2023-05-16T19:20:14.093Z,19.23
2023-05-16T19:23:00.417Z,19.23
2023-05-16T19:25:49.119Z,19.21
2023-05-16T19:28:37.560Z,19.19
2023-05-16T19:31:23.757Z,19.21
2023-05-16T19:34:09.998Z,19.19
2023-05-16T19:36:56.227Z,19.18
2023-05-16T19:39:42.404Z,19.17
2023-05-16T19:42:28.526Z,19.13
2023-05-16T19:45:14.587Z,19.14
2023-05-16T19:48:00.538Z,19.12
2023-05-16T19:50:46.823Z,19.09
2023-05-16T19:53:32.957Z,19.11
2023-05-16T19:56:18.939Z,19.07
2023-05-16T19:59:04.821Z,19.01
2023-05-16T20:01:50.809Z,19.04
2023-05-16T20:04:36.472Z,19.06
2023-05-16T20:07:23.165Z,19.06
2023-05-16T20:10:09.491Z,19.07
2023-05-16T20:12:55.387Z,19.04
2023-05-16T20:15:41.159Z,19.07
2023-05-16T20:18:27.043Z,19.05
2023-05-16T20:21:13.553Z,19.06
2023-05-16T20:23:59.668Z,19.03
2023-05-16T20:26:45.637Z,18.98
2023-05-16T20:29:34.816Z,18.96
2023-05-16T20:32:21.400Z,19.00
2023-05-16T20:35:10.197Z,18.99
2023-05-16T20:37:56.362Z,19.01
2023-05-16T20:40:42.185Z,19.01
2023-05-16T20:43:28.439Z,18.97
2023-05-16T20:46:14.085Z,19.02
2023-05-16T20:49:00.264Z,19.01
2023-05-16T20:51:46.214Z,19.05
2023-05-16T20:54:32.666Z,19.05
2023-05-16T20:57:19.991Z,19.07
2023-05-16T21:00:06.560Z,19.05
2023-05-16T21:02:52.674Z,19.05
2023-05-16T21:05:39.399Z,19.06
2023-05-16T21:08:25.771Z,19.02
2023-05-16T21:11:11.977Z,18.96
2023-05-16T21:13:57.741Z,18.92
2023-05-16T21:16:43.687Z,18.84
2023-05-16T21:19:34.129Z,18.89
2023-05-16T21:22:20.335Z,18.88
2023-05-16T21:25:06.698Z,18.87
2023-05-16T21:27:53.019Z,18.85
2023-05-16T21:30:39.038Z,18.87
2023-05-16T21:33:25.240Z,18.85
2023-05-16T21:36:11.096Z,18.81
2023-05-16T21:38:57.415Z,18.81
2023-05-16T21:41:43.450Z,18.82
2023-05-16T21:44:31.736Z,18.79
2023-05-16T21:47:18.048Z,18.74
2023-05-16T21:50:05.403Z,18.68
2023-05-16T21:52:51.432Z,18.66
2023-05-16T21:55:38.316Z,18.59
2023-05-16T21:58:26.366Z,18.42
2023-05-16T22:01:14.958Z,18.47
2023-05-16T22:04:02.719Z,18.18
2023-05-16T22:06:48.720Z,18.42
2023-05-16T22:09:54.817Z,18.42
2023-05-16T22:12:43.337Z,18.42
2023-05-16T22:15:34.475Z,18.36
2023-05-16T22:18:33.333Z,18.36
2023-05-16T22:21:20.552Z,18.36
2023-05-16T22:24:07.088Z,18.40
2023-05-16T22:26:53.148Z,18.39
2023-05-16T22:29:39.062Z,18.34
2023-05-16T22:32:25.173Z,18.30
2023-05-16T22:35:11.192Z,18.28
2023-05-16T22:38:01.939Z,18.33
2023-05-16T22:40:47.748Z,18.26
2023-05-16T22:43:34.691Z,18.32
2023-05-16T22:46:20.874Z,18.25
2023-05-16T22:49:06.786Z,18.28
2023-05-16T22:51:56.729Z,18.21
2023-05-16T22:54:51.796Z,18.23
2023-05-16T22:57:37.714Z,18.21
2023-05-16T23:00:24.566Z,18.12
2023-05-16T23:03:13.383Z,18.10
2023-05-16T23:05:59.313Z,18.12
2023-05-16T23:08:45.164Z,18.08
2023-05-16T23:11:32.403Z,18.07
2023-05-16T23:14:18.496Z,18.00
2023-05-16T23:17:05.652Z,18.01
2023-05-16T23:19:51.706Z,17.99
2023-05-16T23:22:37.674Z,17.95
2023-05-16T23:25:27.643Z,17.98
2023-05-16T23:28:15.317Z,17.93
2023-05-16T23:31:01.047Z,17.94
2023-05-16T23:33:46.933Z,17.96
2023-05-16T23:36:33.052Z,17.92
2023-05-16T23:39:19.013Z,17.94
2023-05-16T23:42:05.161Z,17.86
2023-05-16T23:44:51.511Z,17.94
2023-05-16T23:47:37.824Z,17.92
2023-05-16T23:50:23.838Z,17.94
2023-05-16T23:53:09.791Z,17.91
2023-05-16T23:55:55.876Z,17.93
2023-05-16T23:58:41.896Z,17.91
